sensor_id;sensor_type;location;lat;lon;timestamp;P1;durP1;ratioP1;P2;durP2;ratioP2
41739;SDS011;27422;52.444;13.300;2024-02-15T00:00:40;15.48;;;8.30;;
41739;SDS011;27422;52.444;13.300;2024-02-15T00:03:08;12.68;;;9.02;;
41739;SDS011;27422;52.444;13.300;2024-02-15T00:05:33;11.35;;;8.43;;
41739;SDS011;27422;52.444;13.300;2024-02-15T00:08:02;13.77;;;8.48;;
41739;SDS011;27422;52.444;13.300;2024-02-15T00:10:27;15.23;;;8.80;;
41739;SDS011;27422;52.444;13.300;2024-02-15T00:12:53;11.88;;;8.23;;
41739;SDS011;27422;52.444;13.300;2024-02-15T00:15:18;13.38;;;9.40;;
41739;SDS011;27422;52.444;13.300;2024-02-15T00:17:45;13.23;;;9.40;;
41739;SDS011;27422;52.444;13.300;2024-02-15T00:20:13;13.93;;;8.55;;
41739;SDS011;27422;52.444;13.300;2024-02-15T00:22:38;14.38;;;10.02;;
41739;SDS011;27422;52.444;13.300;2024-02-15T00:25:06;13.77;;;9.70;;
41739;SDS011;27422;52.444;13.300;2024-02-15T00:27:33;14.75;;;9.95;;
41739;SDS011;27422;52.444;13.300;2024-02-15T00:29:59;13.77;;;9.65;;
41739;SDS011;27422;52.444;13.300;2024-02-15T00:32:25;17.05;;;11.00;;
41739;SDS011;27422;52.444;13.300;2024-02-15T00:34:51;14.32;;;10.13;;
41739;SDS011;27422;52.444;13.300;2024-02-15T00:37:16;15.55;;;10.77;;
41739;SDS011;27422;52.444;13.300;2024-02-15T00:39:42;16.10;;;10.35;;
41739;SDS011;27422;52.444;13.300;2024-02-15T00:42:08;14.52;;;10.32;;
41739;SDS011;27422;52.444;13.300;2024-02-15T00:44:35;16.80;;;10.77;;
41739;SDS011;27422;52.444;13.300;2024-02-15T00:47:04;14.65;;;10.48;;
41739;SDS011;27422;52.444;13.300;2024-02-15T00:49:34;16.52;;;11.07;;
41739;SDS011;27422;52.444;13.300;2024-02-15T00:52:00;20.42;;;11.13;;
41739;SDS011;27422;52.444;13.300;2024-02-15T00:54:26;16.50;;;11.45;;
41739;SDS011;27422;52.444;13.300;2024-02-15T00:56:51;17.33;;;11.77;;
41739;SDS011;27422;52.444;13.300;2024-02-15T00:59:17;19.55;;;12.13;;
41739;SDS011;27422;52.444;13.300;2024-02-15T01:01:43;17.95;;;12.23;;
41739;SDS011;27422;52.444;13.300;2024-02-15T01:04:09;19.05;;;12.73;;
41739;SDS011;27422;52.444;13.300;2024-02-15T01:06:35;18.02;;;12.23;;
41739;SDS011;27422;52.444;13.300;2024-02-15T01:09:01;19.85;;;12.60;;
41739;SDS011;27422;52.444;13.300;2024-02-15T01:11:28;21.48;;;12.15;;
41739;SDS011;27422;52.444;13.300;2024-02-15T01:13:54;19.95;;;13.15;;
41739;SDS011;27422;52.444;13.300;2024-02-15T01:16:20;19.40;;;13.10;;
41739;SDS011;27422;52.444;13.300;2024-02-15T01:18:46;21.00;;;12.60;;
41739;SDS011;27422;52.444;13.300;2024-02-15T01:21:12;19.83;;;13.48;;
41739;SDS011;27422;52.444;13.300;2024-02-15T01:23:38;21.67;;;14.02;;
41739;SDS011;27422;52.444;13.300;2024-02-15T01:26:03;16.60;;;11.38;;
41739;SDS011;27422;52.444;13.300;2024-02-15T01:28:30;21.77;;;13.20;;
41739;SDS011;27422;52.444;13.300;2024-02-15T01:30:55;19.90;;;12.55;;
41739;SDS011;27422;52.444;13.300;2024-02-15T01:33:21;22.60;;;13.98;;
41739;SDS011;27422;52.444;13.300;2024-02-15T01:35:48;18.90;;;13.15;;
41739;SDS011;27422;52.444;13.300;2024-02-15T01:38:14;19.73;;;13.25;;
41739;SDS011;27422;52.444;13.300;2024-02-15T01:40:40;21.50;;;14.18;;
41739;SDS011;27422;52.444;13.300;2024-02-15T01:43:05;19.65;;;12.88;;
41739;SDS011;27422;52.444;13.300;2024-02-15T01:45:31;23.73;;;13.88;;
41739;SDS011;27422;52.444;13.300;2024-02-15T01:47:56;21.63;;;13.38;;
41739;SDS011;27422;52.444;13.300;2024-02-15T01:50:22;20.55;;;13.70;;
41739;SDS011;27422;52.444;13.300;2024-02-15T01:52:48;23.25;;;14.00;;
41739;SDS011;27422;52.444;13.300;2024-02-15T01:55:15;21.67;;;13.80;;
41739;SDS011;27422;52.444;13.300;2024-02-15T01:57:43;22.70;;;14.43;;
41739;SDS011;27422;52.444;13.300;2024-02-15T02:00:11;22.45;;;14.05;;
41739;SDS011;27422;52.444;13.300;2024-02-15T02:02:38;22.48;;;13.57;;
41739;SDS011;27422;52.444;13.300;2024-02-15T02:05:04;21.90;;;14.07;;
41739;SDS011;27422;52.444;13.300;2024-02-15T02:07:30;22.15;;;14.05;;
41739;SDS011;27422;52.444;13.300;2024-02-15T02:09:56;22.45;;;14.15;;
41739;SDS011;27422;52.444;13.300;2024-02-15T02:12:21;20.45;;;13.80;;
41739;SDS011;27422;52.444;13.300;2024-02-15T02:14:47;23.63;;;14.95;;
41739;SDS011;27422;52.444;13.300;2024-02-15T02:17:13;25.85;;;14.45;;
41739;SDS011;27422;52.444;13.300;2024-02-15T02:19:39;24.02;;;14.70;;
41739;SDS011;27422;52.444;13.300;2024-02-15T02:22:04;23.20;;;14.52;;
41739;SDS011;27422;52.444;13.300;2024-02-15T02:24:30;24.42;;;14.68;;
41739;SDS011;27422;52.444;13.300;2024-02-15T02:27:04;24.00;;;14.23;;
41739;SDS011;27422;52.444;13.300;2024-02-15T02:29:33;22.35;;;15.10;;
41739;SDS011;27422;52.444;13.300;2024-02-15T02:31:59;19.75;;;13.40;;
41739;SDS011;27422;52.444;13.300;2024-02-15T02:34:24;21.30;;;13.77;;
41739;SDS011;27422;52.444;13.300;2024-02-15T02:36:50;24.30;;;14.52;;
41739;SDS011;27422;52.444;13.300;2024-02-15T02:39:16;23.67;;;13.77;;
41739;SDS011;27422;52.444;13.300;2024-02-15T02:41:44;23.88;;;14.27;;
41739;SDS011;27422;52.444;13.300;2024-02-15T02:44:11;21.23;;;14.57;;
41739;SDS011;27422;52.444;13.300;2024-02-15T02:46:36;24.48;;;14.65;;
41739;SDS011;27422;52.444;13.300;2024-02-15T02:49:02;23.58;;;15.35;;
41739;SDS011;27422;52.444;13.300;2024-02-15T02:51:27;26.10;;;15.20;;
41739;SDS011;27422;52.444;13.300;2024-02-15T02:53:53;22.55;;;14.38;;
41739;SDS011;27422;52.444;13.300;2024-02-15T02:56:18;22.48;;;14.23;;
41739;SDS011;27422;52.444;13.300;2024-02-15T02:58:43;21.70;;;14.25;;
41739;SDS011;27422;52.444;13.300;2024-02-15T03:01:09;23.88;;;14.93;;
41739;SDS011;27422;52.444;13.300;2024-02-15T03:03:36;24.60;;;14.30;;
41739;SDS011;27422;52.444;13.300;2024-02-15T03:06:01;20.33;;;13.45;;
41739;SDS011;27422;52.444;13.300;2024-02-15T03:08:27;24.80;;;14.80;;
41739;SDS011;27422;52.444;13.300;2024-02-15T03:10:52;24.52;;;15.13;;
41739;SDS011;27422;52.444;13.300;2024-02-15T03:13:18;24.30;;;14.77;;
41739;SDS011;27422;52.444;13.300;2024-02-15T03:15:46;23.17;;;14.55;;
41739;SDS011;27422;52.444;13.300;2024-02-15T03:18:16;23.02;;;14.75;;
41739;SDS011;27422;52.444;13.300;2024-02-15T03:20:42;23.67;;;15.45;;
41739;SDS011;27422;52.444;13.300;2024-02-15T03:23:08;21.42;;;13.98;;
41739;SDS011;27422;52.444;13.300;2024-02-15T03:25:33;27.83;;;15.10;;
41739;SDS011;27422;52.444;13.300;2024-02-15T03:27:59;21.80;;;14.48;;
41739;SDS011;27422;52.444;13.300;2024-02-15T03:30:29;22.42;;;14.05;;
41739;SDS011;27422;52.444;13.300;2024-02-15T03:32:56;26.52;;;15.20;;
41739;SDS011;27422;52.444;13.300;2024-02-15T03:35:22;21.95;;;14.10;;
41739;SDS011;27422;52.444;13.300;2024-02-15T03:37:49;23.50;;;13.38;;
41739;SDS011;27422;52.444;13.300;2024-02-15T03:40:21;27.33;;;15.10;;
41739;SDS011;27422;52.444;13.300;2024-02-15T03:42:47;23.42;;;13.73;;
41739;SDS011;27422;52.444;13.300;2024-02-15T03:45:13;23.75;;;14.35;;
41739;SDS011;27422;52.444;13.300;2024-02-15T03:47:39;21.10;;;13.68;;
41739;SDS011;27422;52.444;13.300;2024-02-15T03:50:05;20.92;;;13.63;;
41739;SDS011;27422;52.444;13.300;2024-02-15T03:52:31;22.75;;;14.52;;
41739;SDS011;27422;52.444;13.300;2024-02-15T03:54:57;24.38;;;14.40;;
41739;SDS011;27422;52.444;13.300;2024-02-15T03:57:25;23.30;;;14.30;;
41739;SDS011;27422;52.444;13.300;2024-02-15T03:59:51;25.10;;;14.50;;
41739;SDS011;27422;52.444;13.300;2024-02-15T04:02:22;25.20;;;15.20;;
41739;SDS011;27422;52.444;13.300;2024-02-15T04:04:49;25.42;;;14.38;;
41739;SDS011;27422;52.444;13.300;2024-02-15T04:07:17;25.88;;;14.95;;
41739;SDS011;27422;52.444;13.300;2024-02-15T04:09:43;26.30;;;14.98;;
41739;SDS011;27422;52.444;13.300;2024-02-15T04:12:08;24.88;;;13.93;;
41739;SDS011;27422;52.444;13.300;2024-02-15T04:14:34;24.20;;;14.68;;
41739;SDS011;27422;52.444;13.300;2024-02-15T04:17:00;26.23;;;14.35;;
41739;SDS011;27422;52.444;13.300;2024-02-15T04:19:26;25.97;;;14.70;;
41739;SDS011;27422;52.444;13.300;2024-02-15T04:21:52;24.88;;;14.27;;
41739;SDS011;27422;52.444;13.300;2024-02-15T04:24:20;24.77;;;14.52;;
41739;SDS011;27422;52.444;13.300;2024-02-15T04:26:46;23.17;;;14.07;;
41739;SDS011;27422;52.444;13.300;2024-02-15T04:29:13;24.15;;;12.88;;
41739;SDS011;27422;52.444;13.300;2024-02-15T04:31:39;26.10;;;14.65;;
41739;SDS011;27422;52.444;13.300;2024-02-15T04:34:07;25.52;;;14.48;;
41739;SDS011;27422;52.444;13.300;2024-02-15T04:36:34;24.58;;;13.93;;
41739;SDS011;27422;52.444;13.300;2024-02-15T04:38:59;25.38;;;14.27;;
41739;SDS011;27422;52.444;13.300;2024-02-15T04:41:27;26.02;;;14.45;;
41739;SDS011;27422;52.444;13.300;2024-02-15T04:43:54;27.40;;;14.50;;
41739;SDS011;27422;52.444;13.300;2024-02-15T04:46:19;25.17;;;13.75;;
41739;SDS011;27422;52.444;13.300;2024-02-15T04:48:48;24.57;;;13.07;;
41739;SDS011;27422;52.444;13.300;2024-02-15T04:51:16;26.08;;;14.20;;
41739;SDS011;27422;52.444;13.300;2024-02-15T04:53:42;27.92;;;14.07;;
41739;SDS011;27422;52.444;13.300;2024-02-15T04:56:08;25.42;;;13.90;;
41739;SDS011;27422;52.444;13.300;2024-02-15T04:58:39;24.45;;;13.93;;
41739;SDS011;27422;52.444;13.300;2024-02-15T05:01:13;25.77;;;14.00;;
41739;SDS011;27422;52.444;13.300;2024-02-15T05:03:39;23.92;;;13.07;;
41739;SDS011;27422;52.444;13.300;2024-02-15T05:06:05;24.23;;;12.93;;
41739;SDS011;27422;52.444;13.300;2024-02-15T05:11:00;24.77;;;13.05;;
41739;SDS011;27422;52.444;13.300;2024-02-15T05:13:25;24.95;;;13.02;;
41739;SDS011;27422;52.444;13.300;2024-02-15T05:15:50;23.42;;;13.40;;
41739;SDS011;27422;52.444;13.300;2024-02-15T05:18:16;28.42;;;13.88;;
41739;SDS011;27422;52.444;13.300;2024-02-15T05:20:42;23.38;;;12.98;;
41739;SDS011;27422;52.444;13.300;2024-02-15T05:23:07;24.10;;;12.95;;
41739;SDS011;27422;52.444;13.300;2024-02-15T05:25:33;23.45;;;13.23;;
41739;SDS011;27422;52.444;13.300;2024-02-15T05:28:00;19.63;;;11.57;;
41739;SDS011;27422;52.444;13.300;2024-02-15T05:30:26;24.10;;;12.85;;
41739;SDS011;27422;52.444;13.300;2024-02-15T05:32:51;23.27;;;11.60;;
41739;SDS011;27422;52.444;13.300;2024-02-15T05:35:18;24.58;;;13.25;;
41739;SDS011;27422;52.444;13.300;2024-02-15T05:37:43;23.92;;;13.02;;
41739;SDS011;27422;52.444;13.300;2024-02-15T05:40:09;23.23;;;13.07;;
41739;SDS011;27422;52.444;13.300;2024-02-15T05:42:41;21.00;;;11.82;;
41739;SDS011;27422;52.444;13.300;2024-02-15T05:47:53;23.67;;;12.63;;
41739;SDS011;27422;52.444;13.300;2024-02-15T05:50:19;25.05;;;12.55;;
41739;SDS011;27422;52.444;13.300;2024-02-15T05:52:46;24.13;;;12.60;;
41739;SDS011;27422;52.444;13.300;2024-02-15T05:55:12;23.63;;;13.15;;
41739;SDS011;27422;52.444;13.300;2024-02-15T05:57:43;26.25;;;13.18;;
41739;SDS011;27422;52.444;13.300;2024-02-15T06:00:08;22.25;;;13.02;;
41739;SDS011;27422;52.444;13.300;2024-02-15T06:02:34;23.60;;;12.73;;
41739;SDS011;27422;52.444;13.300;2024-02-15T06:05:00;25.88;;;13.23;;
41739;SDS011;27422;52.444;13.300;2024-02-15T06:07:28;23.83;;;13.02;;
41739;SDS011;27422;52.444;13.300;2024-02-15T06:09:54;24.05;;;12.50;;
41739;SDS011;27422;52.444;13.300;2024-02-15T06:12:23;19.27;;;11.45;;
41739;SDS011;27422;52.444;13.300;2024-02-15T06:14:48;20.85;;;11.60;;
41739;SDS011;27422;52.444;13.300;2024-02-15T06:17:14;25.52;;;12.27;;
41739;SDS011;27422;52.444;13.300;2024-02-15T06:19:39;22.50;;;12.57;;
41739;SDS011;27422;52.444;13.300;2024-02-15T06:22:05;20.55;;;11.57;;
41739;SDS011;27422;52.444;13.300;2024-02-15T06:24:30;22.67;;;12.90;;
41739;SDS011;27422;52.444;13.300;2024-02-15T06:26:56;23.17;;;12.00;;
41739;SDS011;27422;52.444;13.300;2024-02-15T06:29:25;22.88;;;12.27;;
41739;SDS011;27422;52.444;13.300;2024-02-15T06:32:09;23.77;;;12.38;;
41739;SDS011;27422;52.444;13.300;2024-02-15T06:34:53;22.17;;;12.15;;
41739;SDS011;27422;52.444;13.300;2024-02-15T06:37:38;22.05;;;11.95;;
41739;SDS011;27422;52.444;13.300;2024-02-15T06:40:22;24.20;;;12.80;;
41739;SDS011;27422;52.444;13.300;2024-02-15T06:42:48;19.77;;;11.07;;
41739;SDS011;27422;52.444;13.300;2024-02-15T06:45:14;20.85;;;12.10;;
41739;SDS011;27422;52.444;13.300;2024-02-15T06:47:41;21.65;;;12.00;;
41739;SDS011;27422;52.444;13.300;2024-02-15T06:50:11;20.20;;;11.43;;
41739;SDS011;27422;52.444;13.300;2024-02-15T06:52:37;20.67;;;12.48;;
41739;SDS011;27422;52.444;13.300;2024-02-15T06:55:03;18.77;;;11.40;;
41739;SDS011;27422;52.444;13.300;2024-02-15T06:57:32;22.02;;;12.73;;
41739;SDS011;27422;52.444;13.300;2024-02-15T07:02:40;22.33;;;12.30;;
41739;SDS011;27422;52.444;13.300;2024-02-15T07:05:14;19.30;;;11.38;;
41739;SDS011;27422;52.444;13.300;2024-02-15T07:07:42;17.27;;;10.48;;
41739;SDS011;27422;52.444;13.300;2024-02-15T07:10:18;20.88;;;12.20;;
41739;SDS011;27422;52.444;13.300;2024-02-15T07:12:43;20.95;;;12.43;;
41739;SDS011;27422;52.444;13.300;2024-02-15T07:15:09;19.42;;;11.18;;
41739;SDS011;27422;52.444;13.300;2024-02-15T07:17:35;21.70;;;12.93;;
41739;SDS011;27422;52.444;13.300;2024-02-15T07:20:02;20.08;;;11.82;;
41739;SDS011;27422;52.444;13.300;2024-02-15T07:22:30;21.73;;;12.40;;
41739;SDS011;27422;52.444;13.300;2024-02-15T07:24:57;19.33;;;11.38;;
41739;SDS011;27422;52.444;13.300;2024-02-15T07:27:22;18.65;;;12.18;;
41739;SDS011;27422;52.444;13.300;2024-02-15T07:29:50;19.48;;;12.15;;
41739;SDS011;27422;52.444;13.300;2024-02-15T07:32:16;24.15;;;12.18;;
41739;SDS011;27422;52.444;13.300;2024-02-15T07:34:43;21.85;;;13.02;;
41739;SDS011;27422;52.444;13.300;2024-02-15T07:37:10;21.27;;;12.27;;
41739;SDS011;27422;52.444;13.300;2024-02-15T07:39:37;21.90;;;12.57;;
41739;SDS011;27422;52.444;13.300;2024-02-15T07:42:03;20.67;;;12.10;;
41739;SDS011;27422;52.444;13.300;2024-02-15T07:44:30;22.42;;;12.05;;
41739;SDS011;27422;52.444;13.300;2024-02-15T07:46:58;19.95;;;12.23;;
41739;SDS011;27422;52.444;13.300;2024-02-15T07:49:26;17.73;;;10.98;;
41739;SDS011;27422;52.444;13.300;2024-02-15T07:51:53;21.00;;;11.77;;
41739;SDS011;27422;52.444;13.300;2024-02-15T07:54:19;19.67;;;11.75;;
41739;SDS011;27422;52.444;13.300;2024-02-15T07:56:48;22.27;;;11.60;;
41739;SDS011;27422;52.444;13.300;2024-02-15T07:59:17;20.33;;;12.23;;
41739;SDS011;27422;52.444;13.300;2024-02-15T08:01:43;20.67;;;12.10;;
41739;SDS011;27422;52.444;13.300;2024-02-15T08:04:11;18.35;;;10.93;;
41739;SDS011;27422;52.444;13.300;2024-02-15T08:06:37;19.55;;;11.38;;
41739;SDS011;27422;52.444;13.300;2024-02-15T08:09:03;19.73;;;11.48;;
41739;SDS011;27422;52.444;13.300;2024-02-15T08:11:31;19.67;;;11.32;;
41739;SDS011;27422;52.444;13.300;2024-02-15T08:13:57;17.88;;;10.93;;
41739;SDS011;27422;52.444;13.300;2024-02-15T08:16:24;17.77;;;10.98;;
41739;SDS011;27422;52.444;13.300;2024-02-15T08:18:52;16.17;;;10.75;;
41739;SDS011;27422;52.444;13.300;2024-02-15T08:21:29;17.25;;;10.75;;
41739;SDS011;27422;52.444;13.300;2024-02-15T08:23:58;18.20;;;11.27;;
41739;SDS011;27422;52.444;13.300;2024-02-15T08:26:24;16.27;;;10.35;;
41739;SDS011;27422;52.444;13.300;2024-02-15T08:28:50;16.40;;;10.70;;
41739;SDS011;27422;52.444;13.300;2024-02-15T08:31:16;15.93;;;10.23;;
41739;SDS011;27422;52.444;13.300;2024-02-15T08:33:41;16.45;;;10.38;;
41739;SDS011;27422;52.444;13.300;2024-02-15T08:36:09;16.60;;;9.80;;
41739;SDS011;27422;52.444;13.300;2024-02-15T08:38:36;15.25;;;9.40;;
41739;SDS011;27422;52.444;13.300;2024-02-15T08:41:06;14.35;;;8.90;;
41739;SDS011;27422;52.444;13.300;2024-02-15T08:43:34;15.27;;;9.63;;
41739;SDS011;27422;52.444;13.300;2024-02-15T08:46:06;15.18;;;8.93;;
41739;SDS011;27422;52.444;13.300;2024-02-15T08:48:32;14.30;;;9.50;;
41739;SDS011;27422;52.444;13.300;2024-02-15T08:50:58;13.88;;;9.13;;
41739;SDS011;27422;52.444;13.300;2024-02-15T08:53:23;15.52;;;9.27;;
41739;SDS011;27422;52.444;13.300;2024-02-15T08:55:49;13.32;;;8.50;;
41739;SDS011;27422;52.444;13.300;2024-02-15T08:58:15;13.05;;;8.68;;
41739;SDS011;27422;52.444;13.300;2024-02-15T09:00:40;15.48;;;9.23;;
41739;SDS011;27422;52.444;13.300;2024-02-15T09:03:13;14.57;;;9.00;;
41739;SDS011;27422;52.444;13.300;2024-02-15T09:05:41;14.88;;;9.43;;
41739;SDS011;27422;52.444;13.300;2024-02-15T09:08:11;13.40;;;9.00;;
41739;SDS011;27422;52.444;13.300;2024-02-15T09:10:37;14.00;;;8.80;;
41739;SDS011;27422;52.444;13.300;2024-02-15T09:13:04;14.53;;;8.70;;
41739;SDS011;27422;52.444;13.300;2024-02-15T09:15:31;12.37;;;8.70;;
41739;SDS011;27422;52.444;13.300;2024-02-15T09:17:56;11.57;;;7.80;;
41739;SDS011;27422;52.444;13.300;2024-02-15T09:20:23;12.40;;;8.43;;
41739;SDS011;27422;52.444;13.300;2024-02-15T09:22:53;12.25;;;7.80;;
41739;SDS011;27422;52.444;13.300;2024-02-15T09:25:19;13.50;;;8.20;;
41739;SDS011;27422;52.444;13.300;2024-02-15T09:27:48;13.27;;;8.40;;
41739;SDS011;27422;52.444;13.300;2024-02-15T09:30:14;13.98;;;8.63;;
41739;SDS011;27422;52.444;13.300;2024-02-15T09:32:41;13.40;;;8.43;;
41739;SDS011;27422;52.444;13.300;2024-02-15T09:35:07;13.30;;;8.40;;
41739;SDS011;27422;52.444;13.300;2024-02-15T09:37:37;13.65;;;8.38;;
41739;SDS011;27422;52.444;13.300;2024-02-15T09:40:07;14.10;;;8.55;;
41739;SDS011;27422;52.444;13.300;2024-02-15T09:42:54;13.55;;;8.30;;
41739;SDS011;27422;52.444;13.300;2024-02-15T09:45:19;11.88;;;7.82;;
41739;SDS011;27422;52.444;13.300;2024-02-15T09:47:46;12.57;;;7.82;;
41739;SDS011;27422;52.444;13.300;2024-02-15T09:50:15;15.30;;;8.35;;
41739;SDS011;27422;52.444;13.300;2024-02-15T09:52:47;11.10;;;7.57;;
41739;SDS011;27422;52.444;13.300;2024-02-15T09:55:16;10.85;;;7.28;;
41739;SDS011;27422;52.444;13.300;2024-02-15T09:57:43;11.73;;;7.40;;
41739;SDS011;27422;52.444;13.300;2024-02-15T10:00:09;13.35;;;7.72;;
41739;SDS011;27422;52.444;13.300;2024-02-15T10:02:46;11.50;;;7.53;;
41739;SDS011;27422;52.444;13.300;2024-02-15T10:05:16;10.15;;;7.00;;
41739;SDS011;27422;52.444;13.300;2024-02-15T10:07:42;11.30;;;7.82;;
41739;SDS011;27422;52.444;13.300;2024-02-15T10:10:15;11.35;;;7.35;;
41739;SDS011;27422;52.444;13.300;2024-02-15T10:12:45;10.38;;;7.10;;
41739;SDS011;27422;52.444;13.300;2024-02-15T10:15:26;11.23;;;6.95;;
41739;SDS011;27422;52.444;13.300;2024-02-15T10:18:02;9.43;;;6.80;;
41739;SDS011;27422;52.444;13.300;2024-02-15T10:20:28;9.55;;;6.72;;
41739;SDS011;27422;52.444;13.300;2024-02-15T10:25:29;10.73;;;6.93;;
41739;SDS011;27422;52.444;13.300;2024-02-15T10:30:39;10.27;;;6.55;;
41739;SDS011;27422;52.444;13.300;2024-02-15T10:33:09;11.18;;;6.00;;
41739;SDS011;27422;52.444;13.300;2024-02-15T10:35:37;10.02;;;5.75;;
41739;SDS011;27422;52.444;13.300;2024-02-15T10:38:07;8.32;;;5.80;;
41739;SDS011;27422;52.444;13.300;2024-02-15T10:40:33;9.18;;;5.43;;
41739;SDS011;27422;52.444;13.300;2024-02-15T10:43:02;10.38;;;5.32;;
41739;SDS011;27422;52.444;13.300;2024-02-15T10:45:34;7.72;;;5.05;;
41739;SDS011;27422;52.444;13.300;2024-02-15T10:48:01;6.97;;;4.82;;
41739;SDS011;27422;52.444;13.300;2024-02-15T10:50:30;7.32;;;4.75;;
41739;SDS011;27422;52.444;13.300;2024-02-15T10:53:00;7.28;;;4.47;;
41739;SDS011;27422;52.444;13.300;2024-02-15T10:57:55;6.28;;;3.88;;
41739;SDS011;27422;52.444;13.300;2024-02-15T11:00:22;6.00;;;3.33;;
41739;SDS011;27422;52.444;13.300;2024-02-15T11:05:33;7.05;;;3.33;;
41739;SDS011;27422;52.444;13.300;2024-02-15T11:08:10;5.60;;;3.40;;
41739;SDS011;27422;52.444;13.300;2024-02-15T11:10:35;5.50;;;3.60;;
41739;SDS011;27422;52.444;13.300;2024-02-15T11:13:04;5.57;;;3.42;;
41739;SDS011;27422;52.444;13.300;2024-02-15T11:15:42;6.18;;;3.45;;
41739;SDS011;27422;52.444;13.300;2024-02-15T11:21:06;5.35;;;2.70;;
41739;SDS011;27422;52.444;13.300;2024-02-15T11:23:32;4.95;;;2.70;;
41739;SDS011;27422;52.444;13.300;2024-02-15T11:25:59;4.55;;;2.65;;
41739;SDS011;27422;52.444;13.300;2024-02-15T11:30:54;4.53;;;2.30;;
41739;SDS011;27422;52.444;13.300;2024-02-15T11:33:27;3.72;;;2.30;;
41739;SDS011;27422;52.444;13.300;2024-02-15T11:36:06;3.83;;;2.30;;
41739;SDS011;27422;52.444;13.300;2024-02-15T11:38:42;4.28;;;2.28;;
41739;SDS011;27422;52.444;13.300;2024-02-15T11:41:11;4.85;;;2.58;;
41739;SDS011;27422;52.444;13.300;2024-02-15T11:46:13;4.32;;;2.20;;
41739;SDS011;27422;52.444;13.300;2024-02-15T11:48:39;4.55;;;2.53;;
41739;SDS011;27422;52.444;13.300;2024-02-15T11:51:05;5.55;;;2.40;;
41739;SDS011;27422;52.444;13.300;2024-02-15T11:53:36;3.25;;;2.10;;
41739;SDS011;27422;52.444;13.300;2024-02-15T11:56:02;4.20;;;2.53;;
41739;SDS011;27422;52.444;13.300;2024-02-15T11:58:30;5.38;;;2.80;;
41739;SDS011;27422;52.444;13.300;2024-02-15T12:01:07;4.97;;;2.35;;
41739;SDS011;27422;52.444;13.300;2024-02-15T12:03:53;4.45;;;2.50;;
41739;SDS011;27422;52.444;13.300;2024-02-15T12:06:38;5.38;;;2.58;;
41739;SDS011;27422;52.444;13.300;2024-02-15T12:09:22;4.20;;;2.30;;
41739;SDS011;27422;52.444;13.300;2024-02-15T12:12:06;4.35;;;2.22;;
41739;SDS011;27422;52.444;13.300;2024-02-15T12:14:57;6.35;;;2.75;;
41739;SDS011;27422;52.444;13.300;2024-02-15T12:17:42;6.00;;;2.78;;
41739;SDS011;27422;52.444;13.300;2024-02-15T12:20:26;4.97;;;2.78;;
41739;SDS011;27422;52.444;13.300;2024-02-15T12:22:51;4.68;;;2.55;;
41739;SDS011;27422;52.444;13.300;2024-02-15T12:25:18;3.97;;;2.30;;
41739;SDS011;27422;52.444;13.300;2024-02-15T12:27:46;6.32;;;2.63;;
41739;SDS011;27422;52.444;13.300;2024-02-15T12:30:20;3.53;;;2.00;;
41739;SDS011;27422;52.444;13.300;2024-02-15T12:32:50;5.47;;;2.10;;
41739;SDS011;27422;52.444;13.300;2024-02-15T12:35:18;4.75;;;2.15;;
41739;SDS011;27422;52.444;13.300;2024-02-15T12:40:36;4.55;;;2.40;;
41739;SDS011;27422;52.444;13.300;2024-02-15T12:43:05;4.90;;;2.30;;
41739;SDS011;27422;52.444;13.300;2024-02-15T12:45:31;4.72;;;2.30;;
41739;SDS011;27422;52.444;13.300;2024-02-15T12:47:57;5.40;;;2.40;;
41739;SDS011;27422;52.444;13.300;2024-02-15T12:50:24;5.75;;;2.50;;
41739;SDS011;27422;52.444;13.300;2024-02-15T12:52:53;4.25;;;2.85;;
41739;SDS011;27422;52.444;13.300;2024-02-15T12:55:21;4.72;;;2.58;;
41739;SDS011;27422;52.444;13.300;2024-02-15T12:57:55;4.65;;;2.25;;
41739;SDS011;27422;52.444;13.300;2024-02-15T13:00:26;4.15;;;2.33;;
41739;SDS011;27422;52.444;13.300;2024-02-15T13:02:57;5.07;;;2.58;;
41739;SDS011;27422;52.444;13.300;2024-02-15T13:05:24;4.88;;;2.80;;
41739;SDS011;27422;52.444;13.300;2024-02-15T13:07:51;4.05;;;2.50;;
41739;SDS011;27422;52.444;13.300;2024-02-15T13:10:42;5.55;;;2.53;;
41739;SDS011;27422;52.444;13.300;2024-02-15T13:13:07;5.60;;;2.53;;
41739;SDS011;27422;52.444;13.300;2024-02-15T13:15:35;8.15;;;3.22;;
41739;SDS011;27422;52.444;13.300;2024-02-15T13:18:04;3.65;;;2.05;;
41739;SDS011;27422;52.444;13.300;2024-02-15T13:20:40;5.03;;;2.47;;
41739;SDS011;27422;52.444;13.300;2024-02-15T13:23:08;4.18;;;2.50;;
41739;SDS011;27422;52.444;13.300;2024-02-15T13:25:40;4.47;;;2.20;;
41739;SDS011;27422;52.444;13.300;2024-02-15T13:28:07;5.25;;;2.90;;
41739;SDS011;27422;52.444;13.300;2024-02-15T13:30:35;5.20;;;2.67;;
41739;SDS011;27422;52.444;13.300;2024-02-15T13:33:01;4.53;;;2.45;;
41739;SDS011;27422;52.444;13.300;2024-02-15T13:35:27;4.97;;;2.38;;
41739;SDS011;27422;52.444;13.300;2024-02-15T13:37:54;4.30;;;2.55;;
41739;SDS011;27422;52.444;13.300;2024-02-15T13:40:20;4.55;;;2.10;;
41739;SDS011;27422;52.444;13.300;2024-02-15T13:42:51;5.93;;;2.47;;
41739;SDS011;27422;52.444;13.300;2024-02-15T13:45:40;4.53;;;2.40;;
41739;SDS011;27422;52.444;13.300;2024-02-15T13:48:06;5.40;;;2.15;;
41739;SDS011;27422;52.444;13.300;2024-02-15T13:50:34;5.10;;;2.30;;
41739;SDS011;27422;52.444;13.300;2024-02-15T13:52:59;4.45;;;2.30;;
41739;SDS011;27422;52.444;13.300;2024-02-15T13:55:25;4.53;;;2.30;;
41739;SDS011;27422;52.444;13.300;2024-02-15T13:57:51;3.72;;;1.90;;
41739;SDS011;27422;52.444;13.300;2024-02-15T14:00:19;4.45;;;2.60;;
41739;SDS011;27422;52.444;13.300;2024-02-15T14:02:51;4.60;;;2.20;;
41739;SDS011;27422;52.444;13.300;2024-02-15T14:05:18;4.85;;;2.25;;
41739;SDS011;27422;52.444;13.300;2024-02-15T14:07:49;4.45;;;2.13;;
41739;SDS011;27422;52.444;13.300;2024-02-15T14:10:16;5.65;;;2.30;;
41739;SDS011;27422;52.444;13.300;2024-02-15T14:12:46;6.22;;;2.60;;
41739;SDS011;27422;52.444;13.300;2024-02-15T14:15:17;6.45;;;2.58;;
41739;SDS011;27422;52.444;13.300;2024-02-15T14:17:46;3.67;;;2.00;;
41739;SDS011;27422;52.444;13.300;2024-02-15T14:20:12;4.30;;;2.35;;
41739;SDS011;27422;52.444;13.300;2024-02-15T14:22:41;7.57;;;2.22;;
41739;SDS011;27422;52.444;13.300;2024-02-15T14:25:10;5.93;;;2.40;;
41739;SDS011;27422;52.444;13.300;2024-02-15T14:27:39;5.53;;;2.53;;
41739;SDS011;27422;52.444;13.300;2024-02-15T14:30:05;3.97;;;2.10;;
41739;SDS011;27422;52.444;13.300;2024-02-15T14:32:50;4.90;;;2.10;;
41739;SDS011;27422;52.444;13.300;2024-02-15T14:35:25;6.85;;;2.13;;
41739;SDS011;27422;52.444;13.300;2024-02-15T14:37:51;5.10;;;2.20;;
41739;SDS011;27422;52.444;13.300;2024-02-15T14:40:16;3.90;;;2.03;;
41739;SDS011;27422;52.444;13.300;2024-02-15T14:42:42;6.05;;;2.10;;
41739;SDS011;27422;52.444;13.300;2024-02-15T14:45:08;3.40;;;1.95;;
41739;SDS011;27422;52.444;13.300;2024-02-15T14:47:35;4.38;;;1.90;;
41739;SDS011;27422;52.444;13.300;2024-02-15T14:50:01;3.85;;;2.10;;
41739;SDS011;27422;52.444;13.300;2024-02-15T14:52:26;3.60;;;2.00;;